Castalia, Ohio
Current Conditions -  °F | °C
As of 11:33 AM on Saturday 25 Oct 2014 (Local Time) from KPCW Reporting Station
Clear Clear  
Wind Chill: 64°   Ceiling: Unl
Heat Index: 64°   Visibility: 10mi
Dew Point: 55°   Wind: 15mph
Humidity: 73%   Direction: 250°WSW
Pressure: 29.81"   Gusts: NA
Location:  41.4°N, 82.81°W
Report Text: KPCW 251533Z AUTO 25013KT 10SM CLR 18/13 A2981 RMK AO2 $
Loading
Personal Weather Stations






























Interactive Weather Map
Tropical Storm Tracking
New forecast layout! Learn more

10-Day Weather Forecast

Advertisements
Track Severe Weather on mobile